Alpena County Regional Airport
KAPN : now visible

Airfield :











YOU CAN JOIN US ON...

 
LOGIN :

Register | Disclaimer

   EN    FR    IT 

 









Legend :    VFR   Marginal VFR   IFR   Intensive IFR   Very Intensive IFR
Visi :
Ceiling :
>= 8 km
>= 3000ft
5 to 8 km
1000 to 3000 ft
1500m to 5 km
500 to 1000 ft
800 to 1500m
200 to 500 ft
< 800m
< 200 ft
Symbols :   Thunderstorms  Fog  Heavy snow  Heavy precipitations  Wind > 20 kt






- Airport Elevation : 690 ft
- IATA code : APN


KAPN - Alpena County Regional

CURRENT METAR :
  • 290654Z AUTO 14003KT 10SM OVC090 12/09 A2992 RMK AO2 SLP134 T01170089

EXPIRED METARs :
  • 290554Z AUTO 14003KT 10SM OVC100 12/09 A2993 RMK AO2 SLP135 60000 T01220089 10144 20122 52002
  • 290454Z AUTO 16005KT 10SM OVC100 12/10 A2993 RMK AO2 SLP134 T01220100 402000072

TAF KAPN
Valid from the 29 at 06:00 until the 30 at 06:00 UTC


290520Z 2906/3006 00000KT P6SM OVC110
FM291200 16005KT P6SM SCT110
FM291400 16012KT P6SM SCT190
FM300300 17007KT P6SM SCT200 WS020/20035KT
KZMP FIR / North America



MET'MAP, your aeronautical weather chart ! - Copyright ORBIFLY December 2007 - Disclaimer

ORBIFLY MET'MAP TEAM :

Programming & Development : Alexandra Zaïnal
Original concept : Baudouin d'Aumeries
Technical & hardware support : Manuel Goepfert
Assistance : Marc-Olivier Méhu

Contact : metmap@orbifly.com




SOURCES & CREDITS :

   NOAA       Earth
Advisory